createdAt,value
2023-01-10T00:01:27.984Z,8.33
2023-01-10T00:04:06.946Z,8.41
2023-01-10T00:06:35.160Z,8.37
2023-01-10T00:09:08.686Z,8.45
2023-01-10T00:14:20.252Z,8.42
2023-01-10T00:16:46.809Z,8.52
2023-01-10T00:19:13.909Z,8.53
2023-01-10T00:21:44.294Z,8.36
2023-01-10T00:24:11.249Z,8.54
2023-01-10T00:26:38.086Z,8.53
2023-01-10T00:29:05.634Z,8.54
2023-01-10T00:31:32.801Z,8.53
2023-01-10T00:33:59.645Z,8.55
2023-01-10T00:36:26.231Z,8.59
2023-01-10T00:38:59.502Z,8.31
2023-01-10T00:41:27.070Z,8.52
2023-01-10T00:43:53.922Z,8.48
2023-01-10T00:46:22.253Z,8.49
2023-01-10T00:48:50.181Z,8.43
2023-01-10T00:51:17.313Z,8.44
2023-01-10T00:53:44.789Z,8.29
2023-01-10T00:56:13.142Z,8.46
2023-01-10T00:58:40.553Z,8.36
2023-01-10T01:01:07.813Z,8.22
2023-01-10T01:03:38.740Z,8.27
2023-01-10T01:06:08.846Z,8.27
2023-01-10T01:08:38.722Z,7.94
2023-01-10T01:11:05.616Z,7.99
2023-01-10T01:13:34.922Z,7.87
2023-01-10T01:16:02.304Z,7.88
2023-01-10T01:18:29.153Z,8.02
2023-01-10T01:20:59.050Z,8.01
2023-01-10T01:23:27.419Z,7.86
2023-01-10T01:25:56.690Z,7.94
2023-01-10T01:28:24.050Z,7.69
2023-01-10T01:30:55.568Z,7.93
2023-01-10T01:33:26.087Z,8.11
2023-01-10T01:35:52.936Z,8.23
2023-01-10T01:41:02.701Z,8.23
2023-01-10T01:43:31.665Z,8.23
2023-01-10T01:46:04.338Z,8.25
2023-01-10T01:48:36.702Z,8.33
2023-01-10T01:51:10.968Z,8.29
2023-01-10T01:53:43.413Z,8.27
2023-01-10T01:56:17.571Z,8.27
2023-01-10T01:58:51.093Z,8.24
2023-01-10T02:01:27.923Z,8.11
2023-01-10T02:04:01.397Z,8.30
2023-01-10T02:06:28.781Z,8.26
2023-01-10T02:09:06.212Z,8.45
2023-01-10T02:11:38.788Z,8.35
2023-01-10T02:14:08.889Z,8.46
2023-01-10T02:16:37.677Z,8.41
2023-01-10T02:19:12.599Z,8.37
2023-01-10T02:22:07.462Z,8.36
2023-01-10T02:25:10.859Z,8.36
2023-01-10T02:27:56.200Z,8.41
2023-01-10T02:30:46.900Z,8.25
2023-01-10T02:33:20.998Z,8.30
2023-01-10T02:36:13.784Z,8.21
2023-01-10T02:38:59.361Z,8.22
2023-01-10T02:41:38.314Z,8.21
2023-01-10T02:44:11.540Z,8.01
2023-01-10T02:46:41.325Z,8.03
2023-01-10T02:49:12.345Z,8.02
2023-01-10T02:51:38.981Z,8.00
2023-01-10T02:54:12.468Z,7.75
2023-01-10T02:57:16.981Z,7.67
2023-01-10T03:00:38.007Z,7.40
2023-01-10T03:03:17.015Z,7.20
2023-01-10T03:06:02.289Z,7.39
2023-01-10T03:08:35.975Z,7.39
2023-01-10T03:11:07.664Z,7.19
2023-01-10T03:13:57.490Z,7.22
2023-01-10T03:16:30.251Z,7.07
2023-01-10T03:19:00.653Z,7.21
2023-01-10T03:21:35.420Z,7.40
2023-01-10T03:24:18.371Z,7.56
2023-01-10T03:26:56.724Z,7.67
2023-01-10T03:29:29.024Z,7.84
2023-01-10T03:32:03.222Z,7.78
2023-01-10T03:34:33.241Z,7.61
2023-01-10T03:37:09.967Z,7.57
2023-01-10T03:39:46.267Z,7.31
2023-01-10T03:42:29.313Z,7.36
2023-01-10T03:45:13.156Z,7.10
2023-01-10T03:47:44.127Z,6.86
2023-01-10T03:50:20.984Z,6.76
2023-01-10T03:52:49.225Z,6.73
2023-01-10T03:55:23.513Z,6.59
2023-01-10T03:57:52.036Z,6.49
2023-01-10T04:00:22.175Z,6.43
2023-01-10T04:02:49.649Z,6.43
2023-01-10T04:05:16.532Z,6.20
2023-01-10T04:07:44.920Z,6.26
2023-01-10T04:10:17.401Z,6.45
2023-01-10T04:12:44.840Z,6.60
2023-01-10T04:15:12.595Z,6.60
2023-01-10T04:17:46.705Z,6.71
2023-01-10T04:20:14.806Z,6.78
2023-01-10T04:22:41.708Z,6.97
2023-01-10T04:25:11.585Z,6.95
2023-01-10T04:27:41.946Z,6.83
2023-01-10T04:30:10.025Z,6.92
2023-01-10T04:32:37.798Z,6.91
2023-01-10T04:35:04.813Z,6.54
2023-01-10T04:37:32.804Z,6.90
2023-01-10T04:40:05.637Z,6.76
2023-01-10T04:42:51.104Z,6.64
2023-01-10T04:45:22.512Z,6.54
2023-01-10T04:47:59.053Z,6.51
2023-01-10T04:50:32.429Z,6.53
2023-01-10T04:52:59.853Z,6.38
2023-01-10T04:55:37.926Z,6.70
2023-01-10T04:58:06.738Z,6.87
2023-01-10T05:00:35.193Z,6.65
2023-01-10T05:03:02.276Z,7.02
2023-01-10T05:05:29.251Z,6.93
2023-01-10T05:07:56.709Z,7.01
2023-01-10T05:10:29.010Z,7.12
2023-01-10T05:12:56.207Z,7.11
2023-01-10T05:15:25.375Z,6.96
2023-01-10T05:18:01.459Z,7.07
2023-01-10T05:20:29.408Z,6.90
2023-01-10T05:22:56.222Z,6.99
2023-01-10T05:25:24.768Z,6.96
2023-01-10T05:27:51.270Z,6.89
2023-01-10T05:30:19.034Z,6.85
2023-01-10T05:32:46.338Z,6.92
2023-01-10T05:35:15.199Z,6.69
2023-01-10T05:37:49.452Z,6.58
2023-01-10T05:40:17.123Z,6.32
2023-01-10T05:42:44.064Z,6.35
2023-01-10T05:45:11.788Z,6.37
2023-01-10T05:47:38.975Z,6.28
2023-01-10T05:50:06.742Z,6.24
2023-01-10T05:52:34.627Z,6.23
2023-01-10T05:55:02.322Z,6.02
2023-01-10T05:57:58.317Z,5.90
2023-01-10T06:00:27.508Z,5.95
2023-01-10T06:03:00.653Z,5.92
2023-01-10T06:05:28.241Z,5.80
2023-01-10T06:08:20.891Z,5.89
2023-01-10T06:10:53.507Z,5.61
2023-01-10T06:13:33.691Z,5.68
2023-01-10T06:16:29.592Z,5.62
2023-01-10T06:18:56.450Z,5.79
2023-01-10T06:21:24.148Z,5.81
2023-01-10T06:24:13.816Z,5.64
2023-01-10T06:26:42.096Z,5.96
2023-01-10T06:29:11.539Z,5.96
2023-01-10T06:31:40.833Z,5.94
2023-01-10T06:34:22.853Z,6.39
2023-01-10T06:36:49.963Z,6.48
2023-01-10T06:39:20.557Z,6.69
2023-01-10T06:41:51.589Z,6.63
2023-01-10T06:44:20.530Z,6.71
2023-01-10T06:47:21.444Z,6.67
2023-01-10T06:49:49.724Z,6.80
2023-01-10T06:52:17.180Z,6.97
2023-01-10T06:54:50.660Z,7.08
2023-01-10T06:57:20.112Z,6.86
2023-01-10T06:59:49.410Z,6.98
2023-01-10T07:05:36.294Z,7.21
2023-01-10T07:08:06.106Z,7.06
2023-01-10T07:10:35.381Z,7.25
2023-01-10T07:13:01.944Z,7.21
2023-01-10T07:15:33.954Z,7.29
2023-01-10T07:18:01.043Z,7.20
2023-01-10T07:20:28.867Z,7.18
2023-01-10T07:23:02.510Z,7.27
2023-01-10T07:25:35.559Z,7.36
2023-01-10T07:28:04.623Z,7.26
2023-01-10T07:30:31.246Z,7.37
2023-01-10T07:32:59.375Z,7.40
2023-01-10T07:35:26.275Z,7.28
2023-01-10T07:37:55.571Z,7.29
2023-01-10T07:40:22.468Z,7.22
2023-01-10T07:42:56.521Z,7.49
2023-01-10T07:45:24.902Z,7.51
2023-01-10T07:51:25.771Z,7.43
2023-01-10T07:53:56.629Z,7.58
2023-01-10T07:56:23.284Z,7.61
2023-01-10T07:58:53.979Z,7.66
2023-01-10T08:01:25.524Z,7.77
2023-01-10T08:03:52.890Z,7.68
2023-01-10T08:06:19.557Z,7.54
2023-01-10T08:08:46.317Z,7.60
2023-01-10T08:11:13.023Z,7.28
2023-01-10T08:13:47.028Z,7.37
2023-01-10T08:16:18.736Z,7.40
2023-01-10T08:18:45.563Z,7.58
2023-01-10T08:21:12.498Z,7.77
2023-01-10T08:23:40.194Z,7.84
2023-01-10T08:26:06.898Z,7.80
2023-01-10T08:28:34.385Z,7.31
2023-01-10T08:31:05.983Z,7.41
2023-01-10T08:33:35.403Z,7.65
2023-01-10T08:36:02.263Z,7.97
2023-01-10T08:38:29.852Z,7.90
2023-01-10T08:41:00.054Z,7.62
2023-01-10T08:43:30.810Z,7.58
2023-01-10T08:45:57.645Z,7.64
2023-01-10T08:48:24.705Z,7.51
2023-01-10T08:50:56.074Z,7.41
2023-01-10T08:53:25.714Z,7.40
2023-01-10T08:55:52.786Z,7.45
2023-01-10T08:58:22.025Z,7.34
2023-01-10T09:00:48.642Z,7.51
2023-01-10T09:03:17.387Z,7.43
2023-01-10T09:05:44.666Z,7.36
2023-01-10T09:08:12.805Z,7.17
2023-01-10T09:10:44.004Z,7.39
2023-01-10T09:13:12.497Z,7.56
2023-01-10T09:15:40.080Z,7.62
2023-01-10T09:18:08.225Z,7.66
2023-01-10T09:20:37.772Z,7.87
2023-01-10T09:23:09.203Z,7.80
2023-01-10T09:25:46.187Z,7.91
2023-01-10T09:28:14.188Z,7.93
2023-01-10T09:30:40.886Z,7.96
2023-01-10T09:33:12.111Z,7.99
2023-01-10T09:35:43.041Z,8.26
2023-01-10T09:38:13.153Z,8.35
2023-01-10T09:40:55.903Z,8.50
2023-01-10T09:43:31.510Z,8.53
2023-01-10T09:46:05.507Z,8.77
2023-01-10T09:48:44.535Z,8.51
2023-01-10T09:51:29.524Z,8.42
2023-01-10T09:54:11.288Z,8.55
2023-01-10T09:56:42.255Z,8.71
2023-01-10T09:59:20.053Z,8.75
2023-01-10T10:01:50.353Z,8.98
2023-01-10T10:04:23.720Z,9.00
2023-01-10T10:06:52.906Z,9.04
2023-01-10T10:09:25.886Z,9.17
2023-01-10T10:12:08.158Z,9.10
2023-01-10T10:14:46.141Z,9.51
2023-01-10T10:17:37.368Z,9.22
2023-01-10T10:20:24.185Z,9.42
2023-01-10T10:23:06.373Z,9.13
2023-01-10T10:25:50.179Z,9.15
2023-01-10T10:28:53.815Z,9.27
2023-01-10T10:31:40.915Z,9.22
2023-01-10T10:34:15.274Z,9.29
2023-01-10T10:36:52.552Z,9.55
2023-01-10T10:39:23.309Z,9.41
2023-01-10T10:41:55.557Z,9.50
2023-01-10T10:44:50.995Z,9.90
2023-01-10T10:47:28.804Z,10.10
2023-01-10T10:50:01.938Z,9.92
2023-01-10T10:52:31.615Z,10.08
2023-01-10T10:55:06.139Z,10.13
2023-01-10T10:57:38.583Z,10.32
2023-01-10T11:00:17.261Z,9.98
2023-01-10T11:03:03.380Z,10.15
2023-01-10T11:05:34.851Z,10.16
2023-01-10T11:08:07.939Z,10.17
2023-01-10T11:10:36.277Z,10.33
2023-01-10T11:13:06.917Z,10.39
2023-01-10T11:15:47.882Z,10.28
2023-01-10T11:18:19.366Z,10.64
2023-01-10T11:20:52.664Z,10.62
2023-01-10T11:23:29.198Z,10.73
2023-01-10T11:26:00.207Z,10.34
2023-01-10T11:28:32.634Z,10.27
2023-01-10T11:31:04.810Z,10.40
2023-01-10T11:33:33.829Z,10.25
2023-01-10T11:36:03.404Z,10.55
2023-01-10T11:38:34.037Z,10.65
2023-01-10T11:41:02.657Z,10.46
2023-01-10T11:43:34.098Z,10.43
2023-01-10T11:46:06.037Z,10.79
2023-01-10T11:49:06.777Z,10.78
2023-01-10T11:51:38.223Z,10.48
2023-01-10T11:54:07.123Z,10.48
2023-01-10T11:56:36.306Z,10.38
2023-01-10T11:59:10.316Z,10.43
2023-01-10T12:01:57.882Z,10.88
2023-01-10T12:04:34.406Z,10.48
2023-01-10T12:07:09.379Z,10.62
2023-01-10T12:09:40.788Z,10.71
2023-01-10T12:12:27.008Z,10.57
2023-01-10T12:14:55.579Z,10.77
2023-01-10T12:17:26.834Z,10.91
2023-01-10T12:19:57.460Z,11.02
2023-01-10T12:26:12.412Z,10.41
2023-01-10T12:32:51.907Z,10.75
2023-01-10T12:42:57.362Z,10.91
2023-01-10T12:45:30.473Z,10.41
2023-01-10T12:52:26.378Z,10.63
2023-01-10T13:04:19.563Z,10.43
2023-01-10T13:06:49.709Z,10.49
2023-01-10T13:09:23.160Z,10.48
2023-01-10T13:11:59.387Z,10.46
2023-01-10T13:14:34.188Z,10.23
2023-01-10T13:17:16.186Z,10.13
2023-01-10T13:19:42.785Z,10.12
2023-01-10T13:22:20.511Z,10.16
2023-01-10T13:24:56.921Z,10.06
2023-01-10T13:27:25.447Z,10.18
2023-01-10T13:30:30.079Z,10.24
2023-01-10T13:40:05.745Z,9.83
2023-01-10T13:42:48.128Z,9.86
2023-01-10T13:45:28.215Z,9.91
2023-01-10T13:48:01.781Z,9.63
2023-01-10T13:51:00.895Z,9.84
2023-01-10T13:54:02.167Z,9.91
2023-01-10T13:56:43.297Z,9.86
2023-01-10T14:00:05.544Z,9.58
2023-01-10T14:02:33.547Z,9.46
2023-01-10T14:05:07.573Z,9.53
2023-01-10T14:07:45.863Z,9.57
2023-01-10T14:10:21.696Z,9.41
2023-01-10T14:13:20.802Z,9.49
2023-01-10T14:15:48.246Z,9.33
2023-01-10T14:18:23.692Z,9.37
2023-01-10T14:21:04.105Z,9.44
2023-01-10T14:23:37.133Z,9.49
2023-01-10T14:26:11.125Z,9.35
2023-01-10T14:28:44.895Z,9.26
2023-01-10T14:31:19.788Z,9.11
2023-01-10T14:33:47.488Z,9.21
2023-01-10T14:36:18.629Z,9.14
2023-01-10T14:38:47.677Z,9.01
2023-01-10T14:41:19.753Z,9.05
2023-01-10T14:43:53.523Z,9.00
2023-01-10T14:46:31.804Z,9.00
2023-01-10T14:49:00.019Z,9.06
2023-01-10T14:51:32.622Z,8.84
2023-01-10T14:54:01.724Z,9.10
2023-01-10T14:56:32.565Z,9.06
2023-01-10T14:59:18.293Z,8.97
2023-01-10T15:01:51.964Z,9.10
2023-01-10T15:04:24.593Z,9.02
2023-01-10T15:06:55.474Z,9.07
2023-01-10T15:09:23.321Z,9.00
2023-01-10T15:11:52.524Z,8.93
2023-01-10T15:14:26.515Z,8.86
2023-01-10T15:16:56.918Z,8.94
2023-01-10T15:19:26.281Z,8.55
2023-01-10T15:21:53.864Z,8.63
2023-01-10T15:24:33.366Z,8.58
2023-01-10T15:27:04.541Z,8.83
2023-01-10T15:29:43.926Z,8.77
2023-01-10T15:32:21.079Z,8.52
2023-01-10T15:34:50.857Z,8.67
2023-01-10T15:37:23.165Z,8.90
2023-01-10T15:39:50.248Z,8.88
2023-01-10T15:42:22.104Z,8.88
2023-01-10T15:44:56.089Z,8.83
2023-01-10T15:47:35.947Z,8.74
2023-01-10T15:50:17.020Z,8.39
2023-01-10T15:52:48.035Z,8.35
2023-01-10T15:55:35.916Z,8.26
2023-01-10T15:58:03.133Z,8.47
2023-01-10T16:00:32.364Z,8.43
2023-01-10T16:03:01.858Z,8.44
2023-01-10T16:05:30.409Z,8.47
2023-01-10T16:07:58.091Z,8.47
2023-01-10T16:10:27.164Z,8.43
2023-01-10T16:13:08.954Z,8.12
2023-01-10T16:15:41.267Z,8.21
2023-01-10T16:18:10.972Z,8.12
2023-01-10T16:20:46.272Z,8.00
2023-01-10T16:23:18.493Z,8.10
2023-01-10T16:25:49.345Z,7.96
2023-01-10T16:28:19.638Z,7.91
2023-01-10T16:30:56.680Z,7.62
2023-01-10T16:33:26.323Z,7.63
2023-01-10T16:35:58.457Z,7.75
2023-01-10T16:38:28.128Z,7.53
2023-01-10T16:40:59.625Z,7.59
2023-01-10T16:43:28.382Z,7.67
2023-01-10T16:46:03.535Z,7.69
2023-01-10T16:48:32.296Z,7.78
2023-01-10T16:51:19.446Z,7.52
2023-01-10T16:53:46.919Z,7.55
2023-01-10T16:56:16.231Z,7.41
2023-01-10T16:58:47.674Z,7.41
2023-01-10T17:01:20.845Z,7.40
2023-01-10T17:03:48.220Z,7.42
2023-01-10T17:06:15.974Z,7.33
2023-01-10T17:08:46.958Z,7.41
2023-01-10T17:11:21.298Z,7.43
2023-01-10T17:13:49.672Z,7.38
2023-01-10T17:16:19.840Z,7.57
2023-01-10T17:18:47.804Z,7.37
2023-01-10T17:21:18.569Z,7.49
2023-01-10T17:23:47.465Z,7.52
2023-01-10T17:26:17.927Z,7.41
2023-01-10T17:28:45.522Z,7.28
2023-01-10T17:31:12.846Z,7.23
2023-01-10T17:33:41.197Z,7.08
2023-01-10T17:36:10.872Z,7.25
2023-01-10T17:38:40.416Z,7.10
2023-01-10T17:41:09.957Z,7.09
2023-01-10T17:43:38.560Z,7.02
2023-01-10T17:46:06.526Z,7.02
2023-01-10T17:48:33.645Z,6.91
2023-01-10T17:51:02.909Z,6.91
2023-01-10T17:53:32.716Z,6.89
2023-01-10T17:55:59.620Z,6.93
2023-01-10T17:58:27.437Z,7.08
2023-01-10T18:00:54.915Z,7.10
2023-01-10T18:03:22.431Z,6.91
2023-01-10T18:05:51.993Z,6.96
2023-01-10T18:08:23.382Z,6.78
2023-01-10T18:10:52.708Z,6.93
2023-01-10T18:13:20.138Z,6.91
2023-01-10T18:15:48.635Z,6.94
2023-01-10T18:18:17.431Z,6.86
2023-01-10T18:20:49.791Z,6.79
2023-01-10T18:23:17.063Z,6.88
2023-01-10T18:25:52.438Z,6.87
2023-01-10T18:28:31.928Z,6.94
2023-01-10T18:31:07.452Z,6.81
2023-01-10T18:33:35.538Z,6.73
2023-01-10T18:36:04.302Z,6.70
2023-01-10T18:38:31.938Z,6.76
2023-01-10T18:41:01.945Z,6.56
2023-01-10T18:43:28.898Z,6.61
2023-01-10T18:46:00.565Z,6.79
2023-01-10T18:48:27.842Z,6.82
2023-01-10T18:50:55.014Z,6.77
2023-01-10T18:53:22.499Z,6.60
2023-01-10T18:55:53.638Z,6.75
2023-01-10T18:58:23.736Z,6.87
2023-01-10T19:00:51.051Z,6.75
2023-01-10T19:03:21.526Z,6.70
2023-01-10T19:05:50.112Z,6.74
2023-01-10T19:08:17.098Z,6.84
2023-01-10T19:11:11.333Z,6.78
2023-01-10T19:13:39.017Z,6.72
2023-01-10T19:16:12.097Z,6.64
2023-01-10T19:18:39.052Z,6.70
2023-01-10T19:21:06.889Z,6.81
2023-01-10T19:23:33.815Z,6.66
2023-01-10T19:26:01.452Z,6.85
2023-01-10T19:28:29.604Z,6.79
2023-01-10T19:31:04.620Z,6.85
2023-01-10T19:33:34.936Z,6.86
2023-01-10T19:36:10.849Z,6.86
2023-01-10T19:38:38.607Z,6.89
2023-01-10T19:41:09.942Z,6.77
2023-01-10T19:43:39.058Z,6.91
2023-01-10T19:46:18.953Z,6.90
2023-01-10T19:48:49.768Z,6.83
2023-01-10T19:51:18.835Z,6.88
2023-01-10T19:53:47.457Z,6.91
2023-01-10T19:56:18.544Z,7.00
2023-01-10T19:58:55.137Z,7.15
2023-01-10T20:01:25.657Z,6.99
2023-01-10T20:03:53.620Z,7.06
2023-01-10T20:06:39.109Z,7.08
2023-01-10T20:09:11.077Z,6.94
2023-01-10T20:11:43.720Z,7.16
2023-01-10T20:14:13.619Z,7.05
2023-01-10T20:19:55.207Z,6.96
2023-01-10T20:22:24.789Z,7.11
2023-01-10T20:25:06.603Z,7.08
2023-01-10T20:30:44.421Z,6.91
2023-01-10T20:33:43.844Z,7.13
2023-01-10T20:36:26.906Z,7.30
2023-01-10T20:39:03.589Z,7.23
2023-01-10T20:41:35.497Z,6.97
2023-01-10T20:44:02.998Z,7.17
2023-01-10T20:46:49.906Z,7.08
2023-01-10T20:49:17.100Z,7.23
2023-01-10T20:51:48.500Z,7.24
2023-01-10T20:54:17.480Z,7.35
2023-01-10T20:56:48.931Z,7.23
2023-01-10T20:59:50.464Z,7.21
2023-01-10T21:02:17.601Z,7.30
2023-01-10T21:07:34.183Z,7.25
2023-01-10T21:10:04.792Z,7.38
2023-01-10T21:12:35.953Z,7.38
2023-01-10T21:15:03.240Z,7.51
2023-01-10T21:17:29.893Z,7.44
2023-01-10T21:19:57.281Z,7.58
2023-01-10T21:22:45.762Z,7.64
2023-01-10T21:25:12.678Z,7.66
2023-01-10T21:27:44.024Z,7.53
2023-01-10T21:30:41.466Z,7.58
2023-01-10T21:33:16.421Z,7.75
2023-01-10T21:36:01.392Z,7.77
2023-01-10T21:38:51.862Z,7.79
2023-01-10T21:41:27.763Z,7.59
2023-01-10T21:44:00.731Z,7.76
2023-01-10T21:47:20.128Z,7.63
2023-01-10T21:49:49.438Z,7.79
2023-01-10T21:52:19.794Z,7.96
2023-01-10T21:54:51.155Z,7.81
2023-01-10T21:57:18.449Z,7.74
2023-01-10T21:59:50.395Z,7.78
2023-01-10T22:02:17.962Z,7.74
2023-01-10T22:04:46.849Z,7.64
2023-01-10T22:07:14.314Z,7.63
2023-01-10T22:09:47.317Z,7.52
2023-01-10T22:12:16.049Z,7.84
2023-01-10T22:14:45.280Z,7.77
2023-01-10T22:17:20.516Z,7.86
2023-01-10T22:19:47.253Z,7.58
2023-01-10T22:22:15.205Z,7.77
2023-01-10T22:24:44.452Z,7.59
2023-01-10T22:27:11.187Z,7.61
2023-01-10T22:29:39.993Z,7.82
2023-01-10T22:32:08.636Z,7.85
2023-01-10T22:34:35.642Z,7.90
2023-01-10T22:37:13.590Z,7.90
2023-01-10T22:39:40.578Z,7.71
2023-01-10T22:42:10.496Z,7.66
2023-01-10T22:44:43.958Z,7.73
2023-01-10T22:47:13.001Z,7.83
2023-01-10T22:49:39.725Z,7.94
2023-01-10T22:52:11.695Z,7.92
2023-01-10T22:54:41.114Z,8.08
2023-01-10T22:57:11.125Z,8.08
2023-01-10T22:59:39.835Z,8.23
2023-01-10T23:02:15.023Z,7.98
2023-01-10T23:04:50.139Z,7.96
2023-01-10T23:07:17.633Z,8.23
2023-01-10T23:09:45.961Z,8.03
2023-01-10T23:12:14.820Z,8.55
2023-01-10T23:14:41.839Z,8.54
2023-01-10T23:17:10.756Z,8.42
2023-01-10T23:19:37.600Z,8.54
2023-01-10T23:22:52.025Z,8.48
2023-01-10T23:25:44.542Z,8.50
2023-01-10T23:28:12.033Z,8.60
2023-01-10T23:30:39.486Z,8.72
2023-01-10T23:33:08.022Z,8.73
2023-01-10T23:35:34.632Z,8.60
2023-01-10T23:38:10.452Z,8.69
2023-01-10T23:40:37.249Z,8.72
2023-01-10T23:43:04.406Z,8.68
2023-01-10T23:45:37.750Z,8.68
2023-01-10T23:48:07.837Z,8.82
2023-01-10T23:50:36.747Z,8.73
2023-01-10T23:53:04.795Z,8.71
2023-01-10T23:55:37.599Z,8.48
2023-01-10T23:58:17.158Z,8.64
